Time;durP1;ratioP1;P1;durP2;ratioP2;P2;SDS_P1;SDS_P2;PMS_P1;PMS_P2;Temp;Humidity;BMP_temperature;BMP_pressure;BME280_temperature;BME280_humidity;BME280_pressure;Samples;Min_cycle;Max_cycle;Signal;HPM_P1;HPM_P2
2022/06/14 00:00:57;;;;;;;2.03;0.50;;;;;;;18.47;61.77;101887.59;7383375;19;20081;-79
2022/06/14 00:03:29;;;;;;;3.60;0.70;;;;;;;18.45;61.79;101877.09;7387201;19;20021;-78
2022/06/14 00:05:59;;;;;;;3.05;0.50;;;;;;;18.39;62.07;101875.16;7385167;19;20018;-78
2022/06/14 00:08:27;;;;;;;2.88;0.50;;;;;;;18.36;62.06;101881.69;7384084;19;20010;-79
2022/06/14 00:10:57;;;;;;;5.00;1.60;;;;;;;18.33;62.29;101870.56;7387034;19;20631;-78
2022/06/14 00:16:56;;;;;;;2.33;0.55;;;;;;;18.22;62.51;101865.63;7385006;19;20186;-79
2022/06/14 00:19:23;;;;;;;4.75;0.80;;;;;;;18.18;62.31;101859.84;7384823;19;20017;-78
2022/06/14 00:21:50;;;;;;;2.22;0.47;;;;;;;18.14;62.91;101860.34;7385538;19;20074;-78
2022/06/14 00:24:17;;;;;;;3.92;0.50;;;;;;;18.12;62.33;101859.69;7386295;19;20103;-78
2022/06/14 00:26:44;;;;;;;4.18;1.00;;;;;;;18.13;62.29;101861.38;7383275;19;20021;-78
2022/06/14 00:29:11;;;;;;;6.40;0.93;;;;;;;18.13;61.88;101850.72;7390452;19;20501;-78
2022/06/14 00:31:38;;;;;;;2.97;0.60;;;;;;;18.10;61.97;101856.38;7384399;19;20373;-78
2022/06/14 00:34:05;;;;;;;2.90;0.30;;;;;;;18.07;61.83;101860.25;7383991;19;20006;-79
2022/06/14 00:36:34;;;;;;;5.40;0.40;;;;;;;18.04;62.11;101855.25;7383819;19;20007;-78
2022/06/14 00:39:05;;;;;;;2.03;0.43;;;;;;;18.02;61.95;101851.94;7384477;19;20101;-78
2022/06/14 00:41:35;;;;;;;2.05;0.40;;;;;;;18.03;61.78;101847.44;7393200;19;20018;-79
2022/06/14 00:44:05;;;;;;;1.58;0.50;;;;;;;18.01;62.55;101847.63;7402110;19;20015;-79
2022/06/14 00:46:41;;;;;;;2.20;0.50;;;;;;;17.99;62.30;101846.13;7400950;19;20501;-78
2022/06/14 00:49:19;;;;;;;2.28;0.40;;;;;;;17.96;62.05;101839.31;7399962;19;20368;-78
2022/06/14 00:51:53;;;;;;;3.38;0.50;;;;;;;17.94;62.31;101843.97;7399698;19;20011;-78
2022/06/14 00:54:25;;;;;;;1.65;0.52;;;;;;;17.90;62.25;101832.88;7400534;19;20316;-78
2022/06/14 00:57:04;;;;;;;2.85;0.60;;;;;;;17.87;62.25;101833.22;7399738;19;20014;-78
2022/06/14 00:59:44;;;;;;;5.85;1.02;;;;;;;17.88;62.71;101839.34;7400609;19;20018;-80
2022/06/14 01:02:21;;;;;;;2.53;0.73;;;;;;;17.87;62.81;101832.41;7399696;19;20013;-77
2022/06/14 01:04:48;;;;;;;2.88;0.50;;;;;;;17.86;62.57;101838.72;7405900;19;20038;-78
2022/06/14 01:07:27;;;;;;;1.45;0.60;;;;;;;17.85;62.48;101831.72;7401658;19;20034;-78
2022/06/14 01:10:08;;;;;;;3.35;0.50;;;;;;;17.79;62.58;101835.09;7399641;19;20003;-79
2022/06/14 01:12:38;;;;;;;3.40;0.60;;;;;;;17.73;63.26;101830.44;7395639;19;20025;-78
2022/06/14 01:15:12;;;;;;;5.75;2.88;;;;;;;17.73;63.68;101830.44;7401165;19;20424;-79
2022/06/14 01:17:43;;;;;;;1.40;0.47;;;;;;;17.74;64.35;101824.13;7399258;19;20141;-78
2022/06/14 01:20:14;;;;;;;4.00;0.57;;;;;;;17.74;63.00;101822.31;7398674;19;20011;-77
2022/06/14 01:22:42;;;;;;;1.33;0.47;;;;;;;17.73;62.85;101825.13;7398296;19;20327;-78
2022/06/14 01:25:10;;;;;;;1.88;0.40;;;;;;;17.70;62.57;101826.31;7403557;19;20014;-77
2022/06/14 01:27:41;;;;;;;2.20;0.40;;;;;;;17.63;62.96;101819.19;7398671;19;20010;-78
2022/06/14 01:30:19;;;;;;;1.80;0.43;;;;;;;17.56;63.31;101821.72;7398353;19;20070;-78
2022/06/14 01:32:53;;;;;;;3.30;0.47;;;;;;;17.53;63.90;101824.69;7397339;19;20506;-78
2022/06/14 01:35:34;;;;;;;5.32;0.63;;;;;;;17.50;63.43;101820.56;7397489;19;20024;-79
2022/06/14 01:38:14;;;;;;;2.47;0.40;;;;;;;17.53;63.91;101819.38;7398901;19;20387;-78
2022/06/14 01:41:19;;;;;;;2.72;0.50;;;;;;;17.48;63.64;101816.41;7399224;19;20025;-78
2022/06/14 01:44:20;;;;;;;3.72;0.50;;;;;;;17.48;63.34;101819.91;7400492;19;20341;-78
2022/06/14 01:47:06;;;;;;;1.23;0.43;;;;;;;17.46;62.93;101819.25;7395683;19;20521;-78
2022/06/14 01:52:53;;;;;;;2.67;0.60;;;;;;;17.50;63.36;101817.91;7392499;19;20018;-77
2022/06/14 01:55:35;;;;;;;4.10;0.70;;;;;;;17.48;63.11;101816.41;7390909;19;20011;-78
2022/06/14 01:58:21;;;;;;;4.03;1.07;;;;;;;17.46;63.29;101813.13;7391403;19;20014;-78
2022/06/14 02:00:51;;;;;;;3.17;0.65;;;;;;;17.46;63.21;101815.78;7391504;19;20021;-78
2022/06/14 02:06:40;;;;;;;2.63;0.65;;;;;;;17.44;63.64;101813.28;7389032;19;20017;-78
2022/06/14 02:09:16;;;;;;;4.78;0.85;;;;;;;17.43;63.52;101811.59;7389434;19;20071;-77
2022/06/14 02:11:43;;;;;;;2.20;0.70;;;;;;;17.41;63.21;101802.16;7390261;19;20354;-77
2022/06/14 02:14:25;;;;;;;3.05;0.50;;;;;;;17.33;63.31;101797.69;7389692;19;20593;-77
2022/06/14 02:16:59;;;;;;;2.10;0.50;;;;;;;17.28;63.81;101807.19;7387211;19;20021;-78
2022/06/14 02:19:42;;;;;;;1.98;0.57;;;;;;;17.21;64.40;101795.59;7389826;19;20003;-78
2022/06/14 02:22:13;;;;;;;1.65;0.40;;;;;;;17.19;65.85;101797.56;7389255;19;20014;-78
2022/06/14 02:24:55;;;;;;;2.65;0.60;;;;;;;17.20;64.27;101791.25;7389528;19;20721;-77
2022/06/14 02:27:29;;;;;;;4.50;1.02;;;;;;;17.17;64.67;101800.41;7386896;19;20448;-77
2022/06/14 02:30:03;;;;;;;;;;;;;;;17.16;64.46;101798.78;7391985;19;20038;-78
2022/06/14 02:33:10;;;;;;;2.47;0.60;;;;;;;17.11;64.72;101798.44;7390095;19;20238;-79
2022/06/14 02:35:51;;;;;;;2.03;0.50;;;;;;;17.10;64.92;101802.09;7386348;19;20035;-77
2022/06/14 02:38:37;;;;;;;2.85;0.85;;;;;;;17.10;66.05;101802.94;7389664;19;20021;-78
2022/06/14 02:41:19;;;;;;;6.18;0.60;;;;;;;17.12;64.64;101788.66;7389123;19;20150;-79
2022/06/14 02:43:53;;;;;;;2.03;0.50;;;;;;;17.05;64.40;101794.66;7391194;19;20415;-78
2022/06/14 02:46:28;;;;;;;4.43;0.60;;;;;;;16.99;65.25;101791.84;7391769;19;20448;-78
2022/06/14 02:49:04;;;;;;;2.42;0.57;;;;;;;16.94;65.12;101792.34;7393582;19;20010;-78
2022/06/14 02:51:58;;;;;;;2.97;0.50;;;;;;;16.89;65.44;101793.84;7389970;19;20029;-78
2022/06/14 02:54:31;;;;;;;4.28;1.80;;;;;;;16.86;66.24;101781.75;7393437;19;20013;-78
2022/06/14 02:57:02;;;;;;;;;;;;;;;16.86;65.59;101788.88;7390068;19;20028;-78
2022/06/14 02:59:42;;;;;;;3.78;0.60;;;;;;;16.80;65.50;101784.25;7392426;19;20226;-78
2022/06/14 03:02:20;;;;;;;2.08;0.65;;;;;;;16.76;65.96;101789.06;7391422;19;20014;-79
2022/06/14 03:05:11;;;;;;;4.63;0.88;;;;;;;16.76;65.83;101786.38;7388450;19;20246;-78
2022/06/14 03:08:09;;;;;;;2.95;0.50;;;;;;;16.77;65.93;101782.75;7392131;19;20155;-77
2022/06/14 03:10:45;;;;;;;3.28;0.80;;;;;;;16.77;66.94;101784.56;7391385;19;20023;-78
2022/06/14 03:13:29;;;;;;;2.20;0.50;;;;;;;16.77;66.34;101781.91;7386306;19;20011;-77
2022/06/14 03:16:37;;;;;;;3.00;0.50;;;;;;;16.75;65.86;101783.94;7391743;19;20010;-77
2022/06/14 03:19:22;;;;;;;2.40;0.60;;;;;;;16.70;66.17;101776.47;7388895;19;20018;-78
2022/06/14 03:22:08;;;;;;;5.40;0.60;;;;;;;16.72;66.22;101776.28;7389786;19;20014;-78
2022/06/14 03:24:49;;;;;;;3.95;0.50;;;;;;;16.68;66.19;101781.94;7391594;19;20551;-78
2022/06/14 03:27:48;;;;;;;5.35;1.20;;;;;;;16.65;67.58;101790.25;7389167;19;20135;-78
2022/06/14 03:30:29;;;;;;;4.80;0.80;;;;;;;16.65;66.92;101773.47;7386986;19;20066;-79
2022/06/14 03:33:01;;;;;;;3.58;0.85;;;;;;;16.63;66.61;101780.78;7388249;19;20531;-78
2022/06/14 03:35:32;;;;;;;;;;;;;;;16.63;66.31;101775.47;7390792;19;20014;-77
2022/06/14 03:38:04;;;;;;;12.02;1.00;;;;;;;16.55;66.55;101780.78;7390912;19;20373;-78
2022/06/14 03:40:31;;;;;;;5.28;0.85;;;;;;;16.53;66.91;101788.06;7390132;19;20034;-77
2022/06/14 03:43:03;;;;;;;3.85;1.17;;;;;;;16.52;67.73;101781.91;7388371;19;20010;-78
2022/06/14 03:45:41;;;;;;;2.65;0.75;;;;;;;16.53;67.19;101777.44;7388543;19;20014;-78
2022/06/14 03:48:10;;;;;;;3.60;0.80;;;;;;;16.52;67.14;101775.78;7385301;19;20011;-78
2022/06/14 03:51:00;;;;;;;2.78;0.60;;;;;;;16.48;67.05;101775.28;7389931;19;20006;-79
2022/06/14 03:53:46;;;;;;;3.45;0.70;;;;;;;16.42;67.10;101775.94;7386226;19;20617;-79
2022/06/14 03:57:07;;;;;;;3.60;0.57;;;;;;;16.43;67.17;101774.13;7389971;19;20381;-78
2022/06/14 04:00:25;;;;;;;2.33;0.90;;;;;;;16.42;67.89;101767.16;7386267;19;20357;-78
2022/06/14 04:03:26;;;;;;;4.82;0.98;;;;;;;16.35;67.14;101761.69;7386728;19;20010;-78
2022/06/14 04:06:15;;;;;;;2.58;0.70;;;;;;;16.29;67.58;101769.50;7387201;19;20017;-78
2022/06/14 04:09:03;;;;;;;4.07;0.65;;;;;;;16.21;67.94;101771.16;7386794;19;20016;-78
2022/06/14 04:11:45;;;;;;;2.60;0.70;;;;;;;16.15;68.39;101766.50;7388758;19;20010;-78
2022/06/14 04:14:32;;;;;;;4.90;0.80;;;;;;;16.11;68.61;101767.00;7389101;19;20021;-78
2022/06/14 04:17:46;;;;;;;5.60;0.80;;;;;;;16.10;69.16;101768.00;7387705;19;20350;-78
2022/06/14 04:20:32;;;;;;;2.42;0.77;;;;;;;16.14;68.88;101774.66;7388420;19;20483;-78
2022/06/14 04:23:12;;;;;;;4.32;0.80;;;;;;;16.15;68.23;101768.34;7385209;19;20013;-78
2022/06/14 04:25:44;;;;;;;3.42;0.70;;;;;;;16.17;68.53;101764.50;7388061;19;20010;-78
2022/06/14 04:28:28;;;;;;;4.22;0.90;;;;;;;16.19;68.55;101767.00;7387362;19;20013;-78
2022/06/14 04:31:32;;;;;;;2.55;1.08;;;;;;;16.17;68.82;101769.00;7388514;19;20010;-78
2022/06/14 04:34:16;;;;;;;2.85;0.90;;;;;;;16.13;69.95;101765.00;7385719;19;20007;-77
2022/06/14 04:36:54;;;;;;;3.05;0.90;;;;;;;16.12;69.77;101771.31;7386733;19;20018;-78
2022/06/14 04:39:51;;;;;;;1.88;0.80;;;;;;;16.10;69.43;101771.47;7388797;19;20126;-78
2022/06/14 04:42:41;;;;;;;4.82;1.00;;;;;;;16.14;69.49;101772.00;7388367;19;20010;-78
2022/06/14 04:45:19;;;;;;;8.85;1.15;;;;;;;16.07;69.69;101773.63;7386809;19;20464;-78
2022/06/14 04:47:55;;;;;;;2.83;1.08;;;;;;;16.03;70.15;101780.28;7387699;19;20010;-79
2022/06/14 04:50:27;;;;;;;2.78;0.80;;;;;;;16.06;70.40;101782.59;7385991;19;20013;-78
2022/06/14 04:52:59;;;;;;;2.42;0.68;;;;;;;16.05;69.72;101779.09;7384588;19;20011;-77
2022/06/14 04:55:43;;;;;;;3.17;0.95;;;;;;;16.05;70.07;101779.09;7388400;19;20012;-78
2022/06/14 04:58:12;;;;;;;3.78;0.80;;;;;;;16.06;70.15;101782.59;7386404;19;20351;-79
2022/06/14 05:00:44;;;;;;;2.53;0.80;;;;;;;16.03;69.95;101783.75;7388761;19;20493;-79
2022/06/14 05:03:24;;;;;;;2.20;0.80;;;;;;;16.01;70.32;101788.41;7385871;19;20011;-78
2022/06/14 05:06:02;;;;;;;4.38;1.20;;;;;;;16.04;72.58;101789.91;7388070;19;20332;-79
2022/06/14 05:08:35;;;;;;;3.42;0.90;;;;;;;16.05;70.73;101797.69;7386810;19;20007;-78
2022/06/14 05:11:09;;;;;;;4.78;0.75;;;;;;;16.07;70.01;101785.09;7386221;19;20035;-78
2022/06/14 05:13:58;;;;;;;7.35;0.98;;;;;;;16.08;70.40;101800.03;7385852;19;20013;-77
2022/06/14 05:16:37;;;;;;;2.60;0.90;;;;;;;16.04;70.59;101796.06;7385451;19;20093;-78
2022/06/14 05:19:15;;;;;;;2.38;0.90;;;;;;;16.00;70.88;101791.25;7387106;19;20328;-77
2022/06/14 05:22:23;;;;;;;5.50;1.70;;;;;;;16.01;72.98;101798.19;7387088;19;20097;-78
2022/06/14 05:24:50;;;;;;;6.97;1.20;;;;;;;15.98;72.08;101793.22;7385902;19;20014;-77
2022/06/14 05:27:55;;;;;;;2.92;0.98;;;;;;;16.00;71.67;101791.25;7386727;19;20021;-78
2022/06/14 05:30:37;;;;;;;4.60;1.15;;;;;;;16.04;71.10;101795.22;7395184;19;20011;-77
2022/06/14 05:33:40;;;;;;;5.38;1.08;;;;;;;16.07;71.10;101794.88;7393350;19;20119;-79
2022/06/14 05:36:34;;;;;;;4.85;0.93;;;;;;;16.14;70.89;101795.88;7394208;19;20426;-78
2022/06/14 05:39:23;;;;;;;3.63;1.10;;;;;;;16.17;71.14;101798.19;7393878;19;20033;-79
2022/06/14 05:42:02;;;;;;;3.42;0.90;;;;;;;16.21;70.75;101797.69;7394038;19;20479;-79
2022/06/14 05:44:33;;;;;;;5.72;1.17;;;;;;;16.25;70.27;101800.88;7391579;19;20015;-79
2022/06/14 05:47:10;;;;;;;2.95;0.75;;;;;;;16.28;70.34;101800.53;7395657;19;20017;-79
2022/06/14 05:49:45;;;;;;;2.72;0.90;;;;;;;16.31;70.32;101794.03;7394062;19;20146;-80
2022/06/14 05:52:18;;;;;;;4.40;1.02;;;;;;;16.32;70.09;101796.53;7393278;19;20014;-79
2022/06/14 05:55:02;;;;;;;4.63;1.00;;;;;;;16.35;70.36;101796.22;7392566;19;21086;-79
2022/06/14 05:57:36;;;;;;;;;;;;;;;16.39;70.14;101797.56;7393196;19;20056;-77
2022/06/14 06:00:16;;;;;;;3.13;0.90;;;;;;;16.38;70.17;101801.19;7392013;19;19914;-79
2022/06/14 06:02:57;;;;;;;3.75;1.50;;;;;;;16.48;70.06;101806.34;7390353;19;20014;-79
2022/06/14 06:05:43;;;;;;;3.05;1.33;;;;;;;16.58;69.59;101793.72;7389291;19;20082;-79
2022/06/14 06:08:44;;;;;;;5.25;1.20;;;;;;;16.59;69.35;101798.06;7393496;19;20027;-79
2022/06/14 06:11:36;;;;;;;3.88;1.20;;;;;;;16.69;69.30;101798.72;7388633;19;20507;-77
2022/06/14 06:14:26;;;;;;;3.80;1.02;;;;;;;16.78;68.70;101803.00;7390441;19;20020;-77
2022/06/14 06:17:05;;;;;;;2.95;0.90;;;;;;;16.77;68.58;101804.00;7389483;19;20340;-79
2022/06/14 06:19:41;;;;;;;3.55;1.08;;;;;;;16.72;69.04;101803.69;7388208;19;20539;-77
2022/06/14 06:22:15;;;;;;;6.53;1.23;;;;;;;16.75;69.00;101800.69;7390074;19;20020;-78
2022/06/14 06:24:51;;;;;;;4.20;1.17;;;;;;;16.79;68.80;101804.69;7390583;19;20360;-78
2022/06/14 06:27:25;;;;;;;5.00;1.33;;;;;;;16.85;69.67;101800.50;7390329;19;20011;-79
2022/06/14 06:30:01;;;;;;;5.32;1.20;;;;;;;16.91;68.43;101800.69;7392632;19;20401;-77
2022/06/14 06:32:31;;;;;;;6.20;1.25;;;;;;;16.98;68.38;101800.81;7386975;19;20015;-79
2022/06/14 06:35:01;;;;;;;2.42;1.00;;;;;;;17.04;68.18;101800.13;7391656;19;20007;-77
2022/06/14 06:37:38;;;;;;;3.08;1.23;;;;;;;17.06;67.85;101800.78;7392207;19;20003;-77
2022/06/14 06:40:21;;;;;;;9.02;1.15;;;;;;;17.07;67.71;101797.13;7391553;19;20006;-78
2022/06/14 06:42:58;;;;;;;5.10;1.23;;;;;;;17.09;69.14;101795.13;7388467;19;20066;-79
2022/06/14 06:45:30;;;;;;;6.20;1.25;;;;;;;17.15;68.87;101796.28;7393165;19;20013;-79
2022/06/14 06:48:23;;;;;;;5.28;1.30;;;;;;;17.18;68.62;101785.28;7390151;19;20089;-77
2022/06/14 06:51:03;;;;;;;3.10;1.42;;;;;;;17.22;68.56;101795.41;7391207;19;20018;-77
2022/06/14 06:53:40;;;;;;;3.55;1.10;;;;;;;17.27;68.32;101795.72;7388682;19;20015;-77
2022/06/14 06:56:23;;;;;;;5.68;1.40;;;;;;;17.34;69.77;101795.84;7387830;19;20011;-77
2022/06/14 06:58:57;;;;;;;5.10;1.30;;;;;;;17.43;71.12;101787.66;7390505;19;20021;-78
2022/06/14 07:01:32;;;;;;;4.85;1.02;;;;;;;17.50;69.05;101790.47;7388901;19;20066;-78
2022/06/14 07:04:17;;;;;;;6.05;1.27;;;;;;;17.55;68.03;101796.09;7389354;19;20070;-78
2022/06/14 07:06:56;;;;;;;3.58;1.05;;;;;;;17.61;67.91;101789.28;7389645;19;20016;-79
2022/06/14 07:09:41;;;;;;;5.30;0.95;;;;;;;17.60;65.77;101795.59;7387378;19;20019;-78
2022/06/14 07:12:22;;;;;;;5.22;1.08;;;;;;;17.66;65.46;101798.41;7387532;19;20011;-77
2022/06/14 07:14:58;;;;;;;5.18;1.00;;;;;;;17.68;65.47;101795.53;7388028;19;20097;-79
2022/06/14 07:17:38;;;;;;;3.85;0.93;;;;;;;17.72;65.58;101792.38;7386351;19;20018;-77
2022/06/14 07:20:22;;;;;;;2.88;0.82;;;;;;;17.80;64.88;101794.97;7386610;19;20013;-77
2022/06/14 07:23:17;;;;;;;8.68;1.15;;;;;;;17.88;65.21;101796.75;7388783;19;19998;-79
2022/06/14 07:25:57;;;;;;;3.15;0.70;;;;;;;17.92;65.02;101793.59;7386778;19;20011;-77
2022/06/14 07:28:57;;;;;;;3.33;0.73;;;;;;;17.98;63.82;101799.22;7387428;19;20448;-78
2022/06/14 07:31:31;;;;;;;1.65;0.50;;;;;;;18.04;60.01;101799.31;7387321;19;20007;-78
2022/06/14 07:34:00;;;;;;;4.40;0.60;;;;;;;18.15;59.71;101796.22;7385030;19;20029;-78
2022/06/14 07:36:52;;;;;;;3.05;0.60;;;;;;;18.29;59.49;101791.94;7387185;19;20375;-78
2022/06/14 07:39:57;;;;;;;1.45;0.60;;;;;;;18.53;59.32;101789.09;7387278;19;20006;-78
2022/06/14 07:42:30;;;;;;;2.60;0.50;;;;;;;18.97;57.13;101791.81;7381151;19;20015;-78
2022/06/14 07:45:28;;;;;;;4.63;0.98;;;;;;;19.62;55.25;101783.84;7388019;19;20006;-77
2022/06/14 07:48:09;;;;;;;2.28;0.70;;;;;;;20.01;53.37;101785.28;7387038;19;20014;-78
2022/06/14 07:50:43;;;;;;;5.25;1.30;;;;;;;20.10;53.09;101800.19;7389081;19;20014;-78
2022/06/14 07:53:25;;;;;;;3.63;0.90;;;;;;;20.03;53.65;101797.44;7389210;19;20478;-78
2022/06/14 07:56:05;;;;;;;4.00;0.80;;;;;;;19.91;53.03;101782.13;7388243;19;20479;-78
2022/06/14 07:58:46;;;;;;;2.17;0.50;;;;;;;19.82;52.98;101791.25;7389208;19;20014;-77
2022/06/14 08:01:32;;;;;;;3.97;0.38;;;;;;;19.72;53.10;101786.22;7390076;19;20017;-78
2022/06/14 08:04:28;;;;;;;2.58;0.70;;;;;;;19.67;54.54;101783.28;7390986;19;20018;-79
2022/06/14 08:07:18;;;;;;;3.33;0.50;;;;;;;19.58;53.16;101787.09;7387142;19;20352;-78
2022/06/14 08:09:55;;;;;;;5.75;0.70;;;;;;;19.53;52.58;101789.50;7387780;19;20329;-78
2022/06/14 08:12:58;;;;;;;4.45;0.50;;;;;;;19.50;53.03;101788.03;7388850;19;20013;-78
2022/06/14 08:15:44;;;;;;;2.30;0.50;;;;;;;19.48;52.84;101786.56;7387281;19;20502;-78
2022/06/14 08:18:11;;;;;;;2.92;0.68;;;;;;;19.45;52.53;101771.75;7386738;19;20463;-77
2022/06/14 08:20:56;;;;;;;1.15;0.40;;;;;;;19.45;53.06;101778.94;7387591;19;20327;-78
2022/06/14 08:23:35;;;;;;;2.58;0.52;;;;;;;19.46;52.98;101781.41;7387621;19;20598;-77
2022/06/14 08:26:12;;;;;;;2.75;0.40;;;;;;;19.48;51.91;101778.53;7389958;19;20043;-78
2022/06/14 08:29:10;;;;;;;2.65;0.35;;;;;;;19.54;51.65;101770.63;7384875;19;20011;-78
2022/06/14 08:31:48;;;;;;;3.30;0.30;;;;;;;19.61;51.50;101768.00;7388091;19;20090;-78
2022/06/14 08:34:34;;;;;;;6.22;0.43;;;;;;;19.69;50.23;101767.91;7386668;19;20463;-77
2022/06/14 08:37:27;;;;;;;2.60;0.40;;;;;;;19.74;50.11;101765.50;7387543;19;20482;-78
2022/06/14 08:40:08;;;;;;;;;;;;;;;19.70;49.16;101758.88;7389286;19;20010;-78
2022/06/14 08:43:03;;;;;;;1.33;0.30;;;;;;;19.68;49.49;101757.41;7387675;19;20389;-78
2022/06/14 08:45:53;;;;;;;1.38;0.30;;;;;;;19.67;49.60;101753.06;7385899;19;20011;-78
2022/06/14 08:48:39;;;;;;;2.38;0.40;;;;;;;19.71;49.63;101754.38;7386362;19;20014;-79
2022/06/14 08:51:12;;;;;;;1.73;0.30;;;;;;;19.79;49.94;101746.22;7385343;19;20070;-78
2022/06/14 08:54:13;;;;;;;2.20;0.30;;;;;;;19.84;49.76;101751.81;7388076;19;20018;-79
2022/06/14 08:57:23;;;;;;;4.40;0.43;;;;;;;19.85;49.70;101740.13;7387263;19;20025;-79
2022/06/14 09:00:05;;;;;;;2.78;0.30;;;;;;;19.84;49.31;101739.28;7387017;19;20091;-78
2022/06/14 09:02:56;;;;;;;3.33;0.50;;;;;;;19.88;50.64;101742.41;7392132;19;20010;-78
2022/06/14 09:05:57;;;;;;;3.05;0.30;;;;;;;19.93;49.67;101742.66;7396633;19;20324;-78
2022/06/14 09:08:58;;;;;;;1.73;0.25;;;;;;;20.01;48.95;101738.00;7393423;19;20007;-78
2022/06/14 09:11:57;;;;;;;3.70;0.43;;;;;;;20.06;49.03;101732.91;7393396;19;20011;-77
2022/06/14 09:14:49;;;;;;;4.53;0.30;;;;;;;20.08;49.72;101722.84;7392498;19;20010;-78
2022/06/14 09:17:40;;;;;;;3.75;0.40;;;;;;;20.13;48.30;101729.47;7395867;19;20410;-78
2022/06/14 09:20:32;;;;;;;2.25;0.28;;;;;;;20.22;48.52;101721.09;7395654;19;20041;-78
2022/06/14 09:23:31;;;;;;;4.05;0.30;;;;;;;20.31;48.91;101725.34;7395837;19;20038;-77
2022/06/14 09:26:35;;;;;;;4.18;0.30;;;;;;;20.39;48.85;101722.50;7395529;19;20515;-78
2022/06/14 09:29:30;;;;;;;1.33;0.30;;;;;;;20.47;47.91;101714.31;7394640;19;20350;-78
2022/06/14 09:33:09;;;;;;;2.28;0.35;;;;;;;20.56;48.14;101703.50;7394804;19;20123;-77
2022/06/14 09:35:38;;;;;;;2.13;0.40;;;;;;;20.69;47.10;101701.72;7391792;19;20479;-76
2022/06/14 09:38:27;;;;;;;1.58;0.30;;;;;;;20.75;46.82;101716.97;7395080;19;20007;-78
2022/06/14 09:41:19;;;;;;;4.35;0.40;;;;;;;20.82;46.78;101707.16;7379642;19;20006;-79
2022/06/14 09:44:16;;;;;;;3.05;0.50;;;;;;;20.90;46.71;101706.13;7392778;19;20329;-78
2022/06/14 09:47:22;;;;;;;2.03;0.30;;;;;;;20.92;47.07;101706.78;7390950;19;20463;-79
2022/06/14 09:50:27;;;;;;;2.50;0.50;;;;;;;20.95;46.60;101703.69;7389843;19;20011;-77
2022/06/14 09:53:40;;;;;;;1.95;0.75;;;;;;;21.06;46.58;101696.94;7390862;19;20017;-80
2022/06/14 09:56:41;;;;;;;2.95;0.30;;;;;;;21.16;47.26;101700.09;7391061;19;20053;-78
2022/06/14 09:59:28;;;;;;;1.98;0.47;;;;;;;21.22;46.20;101701.97;7393343;19;20526;-77
2022/06/14 10:02:19;;;;;;;1.90;0.38;;;;;;;21.23;45.71;101695.59;7390367;19;20078;-78
2022/06/14 10:05:09;;;;;;;3.35;0.60;;;;;;;21.32;46.65;101697.91;7388862;19;20025;-78
2022/06/14 10:08:01;;;;;;;2.38;0.30;;;;;;;21.45;47.09;101702.44;7389073;19;20014;-78
2022/06/14 10:10:47;;;;;;;2.72;0.38;;;;;;;21.55;46.70;101708.25;7390690;19;20033;-78
2022/06/14 10:13:45;;;;;;;2.20;0.35;;;;;;;21.63;46.41;101708.06;7388325;19;20074;-78
2022/06/14 10:16:32;;;;;;;4.50;0.40;;;;;;;21.68;46.08;101702.91;7390057;19;20018;-78
2022/06/14 10:19:22;;;;;;;4.05;0.57;;;;;;;21.74;46.20;101706.59;7391763;19;20007;-77
2022/06/14 10:22:09;;;;;;;2.13;0.30;;;;;;;21.74;46.15;101694.03;7390391;19;20033;-78
2022/06/14 10:24:54;;;;;;;5.00;0.40;;;;;;;21.77;46.30;101704.38;7391715;19;20360;-77
2022/06/14 10:30:16;;;;;;;2.13;0.40;;;;;;;21.97;45.39;101690.16;7390988;19;20018;-78
2022/06/14 10:33:14;;;;;;;2.35;0.35;;;;;;;22.01;45.48;101691.41;7390264;19;20089;-77
2022/06/14 10:36:00;;;;;;;1.80;0.82;;;;;;;22.14;47.81;101684.19;7388126;19;20479;-77
2022/06/14 10:39:05;;;;;;;2.85;0.90;;;;;;;22.20;46.34;101673.69;7391082;19;20010;-77
2022/06/14 10:41:51;;;;;;;8.18;3.03;;;;;;;22.22;45.78;101671.59;7386196;19;20119;-78
2022/06/14 10:44:26;;;;;;;2.05;0.50;;;;;;;22.22;46.76;101675.09;7390237;19;20475;-79
2022/06/14 10:46:56;;;;;;;4.68;0.50;;;;;;;22.23;45.53;101674.06;7389277;19;20015;-78
2022/06/14 10:49:32;;;;;;;1.83;0.40;;;;;;;22.18;45.62;101672.03;7388541;19;20031;-77
2022/06/14 10:52:05;;;;;;;2.90;0.40;;;;;;;22.19;46.01;101675.53;7389219;19;20014;-79
2022/06/14 10:54:54;;;;;;;1.15;0.40;;;;;;;22.22;46.42;101661.69;7389293;19;20015;-78
2022/06/14 10:57:56;;;;;;;1.40;0.40;;;;;;;22.23;45.92;101666.03;7392270;19;20007;-77
2022/06/14 11:00:31;;;;;;;2.47;0.45;;;;;;;22.23;45.25;101671.38;7391464;19;20018;-78
2022/06/14 11:03:34;;;;;;;1.65;0.30;;;;;;;22.28;44.19;101671.59;7391033;19;20074;-78
2022/06/14 11:06:20;;;;;;;2.25;0.40;;;;;;;22.36;44.28;101670.53;7388696;19;20011;-79
2022/06/14 11:09:20;;;;;;;3.00;0.38;;;;;;;22.39;45.00;101662.91;7392060;19;20015;-78
2022/06/14 11:11:55;;;;;;;3.05;0.38;;;;;;;22.41;44.53;101652.78;7388820;19;20006;-79
2022/06/14 11:15:14;;;;;;;0.90;0.30;;;;;;;22.39;44.37;101646.81;7392202;19;20384;-78
2022/06/14 11:18:08;;;;;;;4.32;0.50;;;;;;;22.34;44.85;101633.22;7389651;19;20078;-77
2022/06/14 11:20:38;;;;;;;2.80;0.50;;;;;;;22.33;44.97;101636.91;7389402;19;20009;-78
2022/06/14 11:23:36;;;;;;;2.63;0.40;;;;;;;22.36;45.37;101636.47;7389942;19;20030;-78
2022/06/14 11:26:24;;;;;;;1.38;0.30;;;;;;;22.35;44.59;101624.09;7389481;19;20011;-77
2022/06/14 11:29:21;;;;;;;2.35;0.40;;;;;;;22.40;44.76;101623.50;7390378;19;20433;-77
2022/06/14 11:31:54;;;;;;;1.48;0.25;;;;;;;22.42;44.52;101624.09;7390389;19;20021;-78
2022/06/14 11:34:24;;;;;;;1.25;0.32;;;;;;;22.45;44.78;101624.47;7388165;19;20086;-78
2022/06/14 11:37:18;;;;;;;2.50;0.38;;;;;;;22.51;44.73;101617.44;7388760;19;20002;-80
2022/06/14 11:39:52;;;;;;;5.88;0.50;;;;;;;22.52;44.52;101613.75;7391377;19;20116;-78
2022/06/14 11:42:19;;;;;;;1.70;0.43;;;;;;;22.46;45.07;101596.63;7388739;19;20065;-78
2022/06/14 11:44:58;;;;;;;8.85;0.82;;;;;;;22.47;44.83;101595.59;7388903;19;20010;-79
2022/06/14 11:48:10;;;;;;;2.50;0.45;;;;;;;22.57;45.43;101597.81;7389129;19;20033;-79
2022/06/14 11:50:47;;;;;;;3.77;0.40;;;;;;;22.65;44.52;101594.09;7386742;19;20381;-79
2022/06/14 11:53:33;;;;;;;1.80;0.57;;;;;;;22.70;43.92;101595.09;7388334;19;20087;-78
2022/06/14 11:56:11;;;;;;;1.60;0.40;;;;;;;22.72;43.53;101593.03;7389490;19;20077;-78
2022/06/14 11:59:13;;;;;;;6.40;0.43;;;;;;;22.79;43.63;101595.69;7389703;19;20021;-79
2022/06/14 12:02:15;;;;;;;0.70;0.30;;;;;;;22.84;44.30;101588.66;7385850;19;20241;-78
2022/06/14 12:04:56;;;;;;;7.70;0.98;;;;;;;22.85;43.91;101584.94;7387118;19;20014;-79
2022/06/14 12:07:38;;;;;;;4.35;0.50;;;;;;;22.87;43.83;101580.16;7388776;19;20011;-78
2022/06/14 12:10:17;;;;;;;1.88;0.40;;;;;;;22.90;43.44;101579.75;7388656;19;20006;-78
2022/06/14 12:12:57;;;;;;;3.65;0.40;;;;;;;22.89;43.50;101579.97;7387064;19;20033;-79
2022/06/14 12:15:39;;;;;;;3.45;0.40;;;;;;;22.86;42.99;101583.06;7388622;19;20046;-78
2022/06/14 12:18:11;;;;;;;1.48;0.40;;;;;;;22.90;43.59;101569.00;7388382;19;20017;-78
2022/06/14 12:20:45;;;;;;;2.80;0.40;;;;;;;22.94;42.86;101566.72;7388657;19;20006;-79
2022/06/14 12:23:23;;;;;;;5.22;0.50;;;;;;;22.95;43.31;101566.50;7387575;19;20015;-77
2022/06/14 12:29:21;;;;;;;3.17;0.60;;;;;;;22.94;43.12;101570.22;7389078;19;20425;-78
2022/06/14 12:31:51;;;;;;;4.50;0.40;;;;;;;22.94;42.24;101566.72;7386770;19;20006;-78
2022/06/14 12:34:33;;;;;;;2.63;0.32;;;;;;;22.93;42.58;101565.06;7388318;19;20014;-78
2022/06/14 12:37:18;;;;;;;2.60;0.60;;;;;;;22.99;42.79;101562.34;7387296;19;20468;-77
2022/06/14 12:39:51;;;;;;;7.13;0.60;;;;;;;23.03;42.09;101558.19;7389123;19;20031;-79
2022/06/14 12:42:18;;;;;;;2.10;0.40;;;;;;;23.02;40.75;101544.97;7388995;19;20034;-79
2022/06/14 12:44:59;;;;;;;1.65;0.40;;;;;;;23.04;40.59;101553.63;7387930;19;20015;-78
2022/06/14 12:47:35;;;;;;;3.25;0.30;;;;;;;23.08;40.73;101554.00;7385922;19;20082;-77
2022/06/14 12:50:20;;;;;;;1.83;0.40;;;;;;;23.15;42.31;101547.56;7386846;19;20093;-78
2022/06/14 12:53:01;;;;;;;2.40;0.40;;;;;;;23.24;42.38;101540.06;7388294;19;20018;-78
2022/06/14 12:55:43;;;;;;;2.55;0.50;;;;;;;23.31;43.18;101533.59;7388001;19;20030;-79